sensor_id;sensor_type;location;lat;lon;timestamp;P1;durP1;ratioP1;P2;durP2;ratioP2
8538;SDS011;4307;53.868;11.680;2023-03-01T00:00:43;5.10;;;3.63;;
8538;SDS011;4307;53.868;11.680;2023-03-01T00:03:11;7.27;;;3.37;;
8538;SDS011;4307;53.868;11.680;2023-03-01T00:05:43;9.67;;;3.80;;
8538;SDS011;4307;53.868;11.680;2023-03-01T00:08:10;5.50;;;3.60;;
8538;SDS011;4307;53.868;11.680;2023-03-01T00:10:37;4.00;;;3.10;;
8538;SDS011;4307;53.868;11.680;2023-03-01T00:13:03;8.17;;;3.20;;
8538;SDS011;4307;53.868;11.680;2023-03-01T00:15:32;5.47;;;3.10;;
8538;SDS011;4307;53.868;11.680;2023-03-01T00:18:00;3.57;;;3.03;;
8538;SDS011;4307;53.868;11.680;2023-03-01T00:20:26;5.77;;;3.20;;
8538;SDS011;4307;53.868;11.680;2023-03-01T00:22:53;7.17;;;3.30;;
8538;SDS011;4307;53.868;11.680;2023-03-01T00:25:20;7.23;;;2.90;;
8538;SDS011;4307;53.868;11.680;2023-03-01T00:27:46;3.77;;;2.87;;
8538;SDS011;4307;53.868;11.680;2023-03-01T00:30:14;4.17;;;2.83;;
8538;SDS011;4307;53.868;11.680;2023-03-01T00:32:42;6.70;;;2.87;;
8538;SDS011;4307;53.868;11.680;2023-03-01T00:35:09;4.87;;;3.50;;
8538;SDS011;4307;53.868;11.680;2023-03-01T00:37:35;4.90;;;2.93;;
8538;SDS011;4307;53.868;11.680;2023-03-01T00:40:02;4.77;;;3.00;;
8538;SDS011;4307;53.868;11.680;2023-03-01T00:42:31;6.57;;;3.00;;
8538;SDS011;4307;53.868;11.680;2023-03-01T00:44:57;4.70;;;3.07;;
8538;SDS011;4307;53.868;11.680;2023-03-01T00:47:24;8.67;;;3.50;;
8538;SDS011;4307;53.868;11.680;2023-03-01T00:49:52;4.10;;;3.20;;
8538;SDS011;4307;53.868;11.680;2023-03-01T00:52:18;5.03;;;3.23;;
8538;SDS011;4307;53.868;11.680;2023-03-01T00:54:45;4.10;;;2.80;;
8538;SDS011;4307;53.868;11.680;2023-03-01T00:57:12;5.30;;;3.40;;
8538;SDS011;4307;53.868;11.680;2023-03-01T00:59:38;8.10;;;3.57;;
8538;SDS011;4307;53.868;11.680;2023-03-01T01:02:05;5.57;;;3.47;;
8538;SDS011;4307;53.868;11.680;2023-03-01T01:04:32;6.13;;;3.50;;
8538;SDS011;4307;53.868;11.680;2023-03-01T01:07:00;6.40;;;3.50;;
8538;SDS011;4307;53.868;11.680;2023-03-01T01:09:26;4.30;;;3.10;;
8538;SDS011;4307;53.868;11.680;2023-03-01T01:11:53;7.40;;;3.70;;
8538;SDS011;4307;53.868;11.680;2023-03-01T01:14:20;6.50;;;3.33;;
8538;SDS011;4307;53.868;11.680;2023-03-01T01:16:46;6.23;;;3.43;;
8538;SDS011;4307;53.868;11.680;2023-03-01T01:19:13;5.07;;;3.27;;
8538;SDS011;4307;53.868;11.680;2023-03-01T01:21:40;4.63;;;3.00;;
8538;SDS011;4307;53.868;11.680;2023-03-01T01:24:09;4.67;;;3.57;;
8538;SDS011;4307;53.868;11.680;2023-03-01T01:26:37;5.43;;;3.70;;
8538;SDS011;4307;53.868;11.680;2023-03-01T01:29:04;4.70;;;3.30;;
8538;SDS011;4307;53.868;11.680;2023-03-01T01:31:31;3.87;;;2.90;;
8538;SDS011;4307;53.868;11.680;2023-03-01T01:34:00;4.50;;;3.37;;
8538;SDS011;4307;53.868;11.680;2023-03-01T01:36:28;11.20;;;3.77;;
8538;SDS011;4307;53.868;11.680;2023-03-01T01:38:54;5.00;;;3.10;;
8538;SDS011;4307;53.868;11.680;2023-03-01T01:41:23;4.20;;;3.20;;
8538;SDS011;4307;53.868;11.680;2023-03-01T01:46:37;3.97;;;2.77;;
8538;SDS011;4307;53.868;11.680;2023-03-01T01:49:07;4.40;;;3.10;;
8538;SDS011;4307;53.868;11.680;2023-03-01T01:51:43;11.93;;;3.67;;
8538;SDS011;4307;53.868;11.680;2023-03-01T01:54:14;4.53;;;3.47;;
8538;SDS011;4307;53.868;11.680;2023-03-01T01:56:48;4.13;;;3.00;;
8538;SDS011;4307;53.868;11.680;2023-03-01T01:59:18;4.47;;;3.37;;
8538;SDS011;4307;53.868;11.680;2023-03-01T02:01:49;6.37;;;3.30;;
8538;SDS011;4307;53.868;11.680;2023-03-01T02:04:16;4.10;;;3.30;;
8538;SDS011;4307;53.868;11.680;2023-03-01T02:06:45;6.67;;;3.17;;
8538;SDS011;4307;53.868;11.680;2023-03-01T02:09:16;5.87;;;3.70;;
8538;SDS011;4307;53.868;11.680;2023-03-01T02:11:47;8.37;;;3.87;;
8538;SDS011;4307;53.868;11.680;2023-03-01T02:14:15;6.63;;;3.63;;
8538;SDS011;4307;53.868;11.680;2023-03-01T02:16:42;5.23;;;3.20;;
8538;SDS011;4307;53.868;11.680;2023-03-01T02:19:10;7.03;;;3.30;;
8538;SDS011;4307;53.868;11.680;2023-03-01T02:21:45;9.00;;;3.60;;
8538;SDS011;4307;53.868;11.680;2023-03-01T02:24:24;4.97;;;3.20;;
8538;SDS011;4307;53.868;11.680;2023-03-01T02:26:58;6.00;;;3.70;;
8538;SDS011;4307;53.868;11.680;2023-03-01T02:29:27;6.73;;;3.53;;
8538;SDS011;4307;53.868;11.680;2023-03-01T02:31:55;7.17;;;3.80;;
8538;SDS011;4307;53.868;11.680;2023-03-01T02:34:25;7.40;;;3.70;;
8538;SDS011;4307;53.868;11.680;2023-03-01T02:36:55;4.93;;;3.63;;
8538;SDS011;4307;53.868;11.680;2023-03-01T02:39:25;5.07;;;3.33;;
8538;SDS011;4307;53.868;11.680;2023-03-01T02:41:54;10.73;;;3.93;;
8538;SDS011;4307;53.868;11.680;2023-03-01T02:44:23;4.23;;;3.77;;
8538;SDS011;4307;53.868;11.680;2023-03-01T02:46:52;4.93;;;3.57;;
8538;SDS011;4307;53.868;11.680;2023-03-01T02:49:22;5.47;;;3.10;;
8538;SDS011;4307;53.868;11.680;2023-03-01T02:54:50;8.87;;;3.67;;
8538;SDS011;4307;53.868;11.680;2023-03-01T02:57:23;4.60;;;3.20;;
8538;SDS011;4307;53.868;11.680;2023-03-01T02:59:53;4.93;;;3.80;;
8538;SDS011;4307;53.868;11.680;2023-03-01T03:02:23;6.70;;;3.77;;
8538;SDS011;4307;53.868;11.680;2023-03-01T03:05:01;6.13;;;3.60;;
8538;SDS011;4307;53.868;11.680;2023-03-01T03:07:31;6.27;;;3.80;;
8538;SDS011;4307;53.868;11.680;2023-03-01T03:09:58;5.13;;;3.60;;
8538;SDS011;4307;53.868;11.680;2023-03-01T03:12:24;7.00;;;3.50;;
8538;SDS011;4307;53.868;11.680;2023-03-01T03:14:51;4.93;;;3.43;;
8538;SDS011;4307;53.868;11.680;2023-03-01T03:17:18;6.87;;;3.93;;
8538;SDS011;4307;53.868;11.680;2023-03-01T03:19:46;6.27;;;3.93;;
8538;SDS011;4307;53.868;11.680;2023-03-01T03:22:12;4.43;;;3.50;;
8538;SDS011;4307;53.868;11.680;2023-03-01T03:24:39;7.57;;;4.00;;
8538;SDS011;4307;53.868;11.680;2023-03-01T03:27:06;4.27;;;3.30;;
8538;SDS011;4307;53.868;11.680;2023-03-01T03:29:33;4.23;;;3.60;;
8538;SDS011;4307;53.868;11.680;2023-03-01T03:32:00;4.00;;;2.97;;
8538;SDS011;4307;53.868;11.680;2023-03-01T03:34:26;5.50;;;3.27;;
8538;SDS011;4307;53.868;11.680;2023-03-01T03:36:54;4.43;;;3.60;;
8538;SDS011;4307;53.868;11.680;2023-03-01T03:39:24;5.40;;;4.17;;
8538;SDS011;4307;53.868;11.680;2023-03-01T03:41:52;7.13;;;4.30;;
8538;SDS011;4307;53.868;11.680;2023-03-01T03:44:19;8.00;;;3.50;;
8538;SDS011;4307;53.868;11.680;2023-03-01T03:46:45;5.20;;;3.70;;
8538;SDS011;4307;53.868;11.680;2023-03-01T03:49:12;7.50;;;3.90;;
8538;SDS011;4307;53.868;11.680;2023-03-01T03:51:39;7.10;;;4.27;;
8538;SDS011;4307;53.868;11.680;2023-03-01T03:54:07;8.90;;;4.27;;
8538;SDS011;4307;53.868;11.680;2023-03-01T03:56:34;6.70;;;3.90;;
8538;SDS011;4307;53.868;11.680;2023-03-01T03:59:00;5.33;;;3.50;;
8538;SDS011;4307;53.868;11.680;2023-03-01T04:01:27;8.43;;;4.40;;
8538;SDS011;4307;53.868;11.680;2023-03-01T04:03:54;4.00;;;3.30;;
8538;SDS011;4307;53.868;11.680;2023-03-01T04:06:20;6.80;;;3.90;;
8538;SDS011;4307;53.868;11.680;2023-03-01T04:08:47;6.03;;;3.87;;
8538;SDS011;4307;53.868;11.680;2023-03-01T04:11:17;8.73;;;4.10;;
8538;SDS011;4307;53.868;11.680;2023-03-01T04:13:53;6.20;;;4.40;;
8538;SDS011;4307;53.868;11.680;2023-03-01T04:16:22;7.50;;;4.37;;
8538;SDS011;4307;53.868;11.680;2023-03-01T04:18:48;6.67;;;4.20;;
8538;SDS011;4307;53.868;11.680;2023-03-01T04:21:15;5.70;;;3.60;;
8538;SDS011;4307;53.868;11.680;2023-03-01T04:23:42;7.63;;;3.87;;
8538;SDS011;4307;53.868;11.680;2023-03-01T04:26:09;4.63;;;3.87;;
8538;SDS011;4307;53.868;11.680;2023-03-01T04:28:38;4.70;;;3.30;;
8538;SDS011;4307;53.868;11.680;2023-03-01T04:31:08;8.17;;;4.10;;
8538;SDS011;4307;53.868;11.680;2023-03-01T04:33:40;6.97;;;4.00;;
8538;SDS011;4307;53.868;11.680;2023-03-01T04:36:08;7.87;;;4.37;;
8538;SDS011;4307;53.868;11.680;2023-03-01T04:38:36;5.37;;;4.00;;
8538;SDS011;4307;53.868;11.680;2023-03-01T04:41:03;5.40;;;3.67;;
8538;SDS011;4307;53.868;11.680;2023-03-01T04:43:30;7.87;;;4.50;;
8538;SDS011;4307;53.868;11.680;2023-03-01T04:46:01;7.77;;;4.13;;
8538;SDS011;4307;53.868;11.680;2023-03-01T04:48:28;6.33;;;4.07;;
8538;SDS011;4307;53.868;11.680;2023-03-01T04:50:56;7.63;;;4.10;;
8538;SDS011;4307;53.868;11.680;2023-03-01T04:53:22;5.77;;;4.13;;
8538;SDS011;4307;53.868;11.680;2023-03-01T04:55:49;7.87;;;4.73;;
8538;SDS011;4307;53.868;11.680;2023-03-01T04:58:16;7.80;;;5.37;;
8538;SDS011;4307;53.868;11.680;2023-03-01T05:00:43;6.43;;;4.80;;
8538;SDS011;4307;53.868;11.680;2023-03-01T05:03:11;8.10;;;5.27;;
8538;SDS011;4307;53.868;11.680;2023-03-01T05:05:39;7.03;;;4.80;;
8538;SDS011;4307;53.868;11.680;2023-03-01T05:08:07;11.73;;;5.10;;
8538;SDS011;4307;53.868;11.680;2023-03-01T05:10:34;7.33;;;4.40;;
8538;SDS011;4307;53.868;11.680;2023-03-01T05:13:03;10.30;;;4.60;;
8538;SDS011;4307;53.868;11.680;2023-03-01T05:15:31;7.83;;;4.63;;
8538;SDS011;4307;53.868;11.680;2023-03-01T05:17:59;6.63;;;4.43;;
8538;SDS011;4307;53.868;11.680;2023-03-01T05:20:27;9.40;;;4.93;;
8538;SDS011;4307;53.868;11.680;2023-03-01T05:22:56;7.57;;;4.70;;
8538;SDS011;4307;53.868;11.680;2023-03-01T05:25:25;8.73;;;5.10;;
8538;SDS011;4307;53.868;11.680;2023-03-01T05:27:52;6.63;;;4.17;;
8538;SDS011;4307;53.868;11.680;2023-03-01T05:30:18;5.47;;;4.00;;
8538;SDS011;4307;53.868;11.680;2023-03-01T05:32:47;5.77;;;4.20;;
8538;SDS011;4307;53.868;11.680;2023-03-01T05:35:20;5.93;;;3.80;;
8538;SDS011;4307;53.868;11.680;2023-03-01T05:37:49;6.93;;;3.97;;
8538;SDS011;4307;53.868;11.680;2023-03-01T05:40:17;6.37;;;4.70;;
8538;SDS011;4307;53.868;11.680;2023-03-01T05:42:45;7.07;;;4.20;;
8538;SDS011;4307;53.868;11.680;2023-03-01T05:45:13;7.70;;;4.20;;
8538;SDS011;4307;53.868;11.680;2023-03-01T05:47:41;7.90;;;4.50;;
8538;SDS011;4307;53.868;11.680;2023-03-01T05:50:10;6.57;;;4.27;;
8538;SDS011;4307;53.868;11.680;2023-03-01T05:52:38;5.97;;;3.83;;
8538;SDS011;4307;53.868;11.680;2023-03-01T05:55:07;5.83;;;4.50;;
8538;SDS011;4307;53.868;11.680;2023-03-01T05:57:34;6.47;;;4.07;;
8538;SDS011;4307;53.868;11.680;2023-03-01T06:00:01;5.60;;;4.20;;
8538;SDS011;4307;53.868;11.680;2023-03-01T06:02:28;8.73;;;4.43;;
8538;SDS011;4307;53.868;11.680;2023-03-01T06:04:55;5.67;;;4.10;;
8538;SDS011;4307;53.868;11.680;2023-03-01T06:07:21;7.77;;;4.57;;
8538;SDS011;4307;53.868;11.680;2023-03-01T06:09:48;6.33;;;4.87;;
8538;SDS011;4307;53.868;11.680;2023-03-01T06:12:16;8.30;;;4.73;;
8538;SDS011;4307;53.868;11.680;2023-03-01T06:14:46;9.47;;;4.60;;
8538;SDS011;4307;53.868;11.680;2023-03-01T06:17:13;7.27;;;4.37;;
8538;SDS011;4307;53.868;11.680;2023-03-01T06:19:41;10.70;;;5.03;;
8538;SDS011;4307;53.868;11.680;2023-03-01T06:22:08;17.03;;;5.77;;
8538;SDS011;4307;53.868;11.680;2023-03-01T06:24:35;8.57;;;4.90;;
8538;SDS011;4307;53.868;11.680;2023-03-01T06:27:03;6.13;;;4.63;;
8538;SDS011;4307;53.868;11.680;2023-03-01T06:29:31;7.87;;;4.67;;
8538;SDS011;4307;53.868;11.680;2023-03-01T06:31:58;7.03;;;4.90;;
8538;SDS011;4307;53.868;11.680;2023-03-01T06:34:25;11.50;;;4.80;;
8538;SDS011;4307;53.868;11.680;2023-03-01T06:36:52;9.17;;;4.73;;
8538;SDS011;4307;53.868;11.680;2023-03-01T06:39:18;12.10;;;5.87;;
8538;SDS011;4307;53.868;11.680;2023-03-01T06:41:45;8.97;;;5.80;;
8538;SDS011;4307;53.868;11.680;2023-03-01T06:44:12;7.57;;;5.23;;
8538;SDS011;4307;53.868;11.680;2023-03-01T06:46:40;8.40;;;5.17;;
8538;SDS011;4307;53.868;11.680;2023-03-01T06:49:06;8.73;;;5.63;;
8538;SDS011;4307;53.868;11.680;2023-03-01T06:51:34;8.47;;;5.93;;
8538;SDS011;4307;53.868;11.680;2023-03-01T06:54:01;8.07;;;5.30;;
8538;SDS011;4307;53.868;11.680;2023-03-01T06:56:28;12.43;;;5.37;;
8538;SDS011;4307;53.868;11.680;2023-03-01T06:58:55;9.57;;;5.70;;
8538;SDS011;4307;53.868;11.680;2023-03-01T07:01:22;9.33;;;4.70;;
8538;SDS011;4307;53.868;11.680;2023-03-01T07:03:50;10.43;;;5.03;;
8538;SDS011;4307;53.868;11.680;2023-03-01T07:06:17;7.97;;;5.13;;
8538;SDS011;4307;53.868;11.680;2023-03-01T07:08:44;6.40;;;3.87;;
8538;SDS011;4307;53.868;11.680;2023-03-01T07:11:11;6.50;;;4.47;;
8538;SDS011;4307;53.868;11.680;2023-03-01T07:13:37;8.40;;;4.60;;
8538;SDS011;4307;53.868;11.680;2023-03-01T07:16:04;10.33;;;4.57;;
8538;SDS011;4307;53.868;11.680;2023-03-01T07:18:32;7.70;;;4.77;;
8538;SDS011;4307;53.868;11.680;2023-03-01T07:21:04;7.70;;;5.23;;
8538;SDS011;4307;53.868;11.680;2023-03-01T07:23:31;13.87;;;6.50;;
8538;SDS011;4307;53.868;11.680;2023-03-01T07:25:58;15.57;;;9.27;;
8538;SDS011;4307;53.868;11.680;2023-03-01T07:28:25;38.10;;;20.17;;
8538;SDS011;4307;53.868;11.680;2023-03-01T07:30:52;38.17;;;19.40;;
8538;SDS011;4307;53.868;11.680;2023-03-01T07:33:19;43.67;;;23.20;;
8538;SDS011;4307;53.868;11.680;2023-03-01T07:35:46;33.23;;;19.40;;
8538;SDS011;4307;53.868;11.680;2023-03-01T07:38:14;19.80;;;12.50;;
8538;SDS011;4307;53.868;11.680;2023-03-01T07:40:40;14.10;;;9.13;;
8538;SDS011;4307;53.868;11.680;2023-03-01T07:43:07;11.10;;;7.50;;
8538;SDS011;4307;53.868;11.680;2023-03-01T07:45:34;14.03;;;6.83;;
8538;SDS011;4307;53.868;11.680;2023-03-01T07:48:00;12.77;;;7.37;;
8538;SDS011;4307;53.868;11.680;2023-03-01T07:50:27;18.10;;;9.10;;
8538;SDS011;4307;53.868;11.680;2023-03-01T07:52:54;14.93;;;8.77;;
8538;SDS011;4307;53.868;11.680;2023-03-01T07:55:22;23.60;;;11.13;;
8538;SDS011;4307;53.868;11.680;2023-03-01T07:57:48;24.60;;;13.27;;
8538;SDS011;4307;53.868;11.680;2023-03-01T08:00:15;21.97;;;12.83;;
8538;SDS011;4307;53.868;11.680;2023-03-01T08:02:42;18.63;;;11.57;;
8538;SDS011;4307;53.868;11.680;2023-03-01T08:05:09;15.40;;;10.10;;
8538;SDS011;4307;53.868;11.680;2023-03-01T08:07:36;19.60;;;9.60;;
8538;SDS011;4307;53.868;11.680;2023-03-01T08:10:03;14.23;;;9.33;;
8538;SDS011;4307;53.868;11.680;2023-03-01T08:12:32;13.93;;;8.97;;
8538;SDS011;4307;53.868;11.680;2023-03-01T08:14:58;14.53;;;8.37;;
8538;SDS011;4307;53.868;11.680;2023-03-01T08:17:25;10.83;;;7.73;;
8538;SDS011;4307;53.868;11.680;2023-03-01T08:19:52;12.33;;;7.10;;
8538;SDS011;4307;53.868;11.680;2023-03-01T08:22:19;9.00;;;6.33;;
8538;SDS011;4307;53.868;11.680;2023-03-01T08:24:46;8.17;;;6.50;;
8538;SDS011;4307;53.868;11.680;2023-03-01T08:27:14;11.57;;;6.47;;
8538;SDS011;4307;53.868;11.680;2023-03-01T08:29:42;15.27;;;7.80;;
8538;SDS011;4307;53.868;11.680;2023-03-01T08:32:09;10.43;;;7.40;;
8538;SDS011;4307;53.868;11.680;2023-03-01T08:34:35;14.50;;;7.83;;
8538;SDS011;4307;53.868;11.680;2023-03-01T08:37:02;12.97;;;7.43;;
8538;SDS011;4307;53.868;11.680;2023-03-01T08:39:29;11.20;;;7.97;;
8538;SDS011;4307;53.868;11.680;2023-03-01T08:41:55;14.40;;;8.20;;
8538;SDS011;4307;53.868;11.680;2023-03-01T08:44:23;14.13;;;8.63;;
8538;SDS011;4307;53.868;11.680;2023-03-01T08:46:51;18.33;;;9.70;;
8538;SDS011;4307;53.868;11.680;2023-03-01T08:49:19;17.53;;;10.87;;
8538;SDS011;4307;53.868;11.680;2023-03-01T08:51:49;17.00;;;11.00;;
8538;SDS011;4307;53.868;11.680;2023-03-01T08:54:16;17.63;;;12.00;;
8538;SDS011;4307;53.868;11.680;2023-03-01T08:56:44;18.30;;;12.07;;
8538;SDS011;4307;53.868;11.680;2023-03-01T08:59:11;20.77;;;11.43;;
8538;SDS011;4307;53.868;11.680;2023-03-01T09:01:40;20.67;;;12.53;;
8538;SDS011;4307;53.868;11.680;2023-03-01T09:04:09;18.67;;;11.73;;
8538;SDS011;4307;53.868;11.680;2023-03-01T09:06:36;19.90;;;12.00;;
8538;SDS011;4307;53.868;11.680;2023-03-01T09:09:03;19.50;;;11.47;;
8538;SDS011;4307;53.868;11.680;2023-03-01T09:11:31;20.80;;;12.20;;
8538;SDS011;4307;53.868;11.680;2023-03-01T09:13:58;20.77;;;12.13;;
8538;SDS011;4307;53.868;11.680;2023-03-01T09:16:25;16.73;;;11.03;;
8538;SDS011;4307;53.868;11.680;2023-03-01T09:18:52;23.53;;;12.63;;
8538;SDS011;4307;53.868;11.680;2023-03-01T09:21:22;18.83;;;10.87;;
8538;SDS011;4307;53.868;11.680;2023-03-01T09:23:49;18.17;;;11.07;;
8538;SDS011;4307;53.868;11.680;2023-03-01T09:26:17;20.83;;;11.77;;
8538;SDS011;4307;53.868;11.680;2023-03-01T09:28:46;16.83;;;11.57;;
8538;SDS011;4307;53.868;11.680;2023-03-01T09:31:14;17.83;;;11.80;;
8538;SDS011;4307;53.868;11.680;2023-03-01T09:33:41;18.37;;;11.73;;
8538;SDS011;4307;53.868;11.680;2023-03-01T09:36:12;17.23;;;11.77;;
8538;SDS011;4307;53.868;11.680;2023-03-01T09:38:42;17.40;;;12.10;;
8538;SDS011;4307;53.868;11.680;2023-03-01T09:41:09;19.17;;;12.30;;
8538;SDS011;4307;53.868;11.680;2023-03-01T09:43:46;18.50;;;13.00;;
8538;SDS011;4307;53.868;11.680;2023-03-01T09:46:18;18.57;;;12.93;;
8538;SDS011;4307;53.868;11.680;2023-03-01T09:48:48;19.67;;;13.13;;
8538;SDS011;4307;53.868;11.680;2023-03-01T09:51:19;22.40;;;13.67;;
8538;SDS011;4307;53.868;11.680;2023-03-01T09:53:52;19.40;;;13.30;;
8538;SDS011;4307;53.868;11.680;2023-03-01T09:56:22;21.40;;;13.07;;
8538;SDS011;4307;53.868;11.680;2023-03-01T09:58:54;25.13;;;14.07;;
8538;SDS011;4307;53.868;11.680;2023-03-01T10:01:29;21.47;;;13.60;;
8538;SDS011;4307;53.868;11.680;2023-03-01T10:04:02;22.43;;;13.97;;
8538;SDS011;4307;53.868;11.680;2023-03-01T10:06:37;22.87;;;13.53;;
8538;SDS011;4307;53.868;11.680;2023-03-01T10:09:11;23.43;;;14.30;;
8538;SDS011;4307;53.868;11.680;2023-03-01T10:11:41;20.07;;;14.23;;
8538;SDS011;4307;53.868;11.680;2023-03-01T10:14:14;22.13;;;13.80;;
8538;SDS011;4307;53.868;11.680;2023-03-01T10:16:55;22.53;;;14.20;;
8538;SDS011;4307;53.868;11.680;2023-03-01T10:19:29;22.23;;;13.63;;
8538;SDS011;4307;53.868;11.680;2023-03-01T10:22:00;23.43;;;14.30;;
8538;SDS011;4307;53.868;11.680;2023-03-01T10:24:34;25.23;;;14.27;;
8538;SDS011;4307;53.868;11.680;2023-03-01T10:27:03;23.70;;;14.77;;
8538;SDS011;4307;53.868;11.680;2023-03-01T10:29:34;21.70;;;14.00;;
8538;SDS011;4307;53.868;11.680;2023-03-01T10:32:09;25.63;;;14.97;;
8538;SDS011;4307;53.868;11.680;2023-03-01T10:34:36;20.77;;;13.93;;
8538;SDS011;4307;53.868;11.680;2023-03-01T10:37:08;21.20;;;14.33;;
8538;SDS011;4307;53.868;11.680;2023-03-01T10:39:38;23.33;;;14.87;;
8538;SDS011;4307;53.868;11.680;2023-03-01T10:42:22;22.53;;;14.17;;
8538;SDS011;4307;53.868;11.680;2023-03-01T10:44:53;21.67;;;14.67;;
8538;SDS011;4307;53.868;11.680;2023-03-01T10:47:20;23.23;;;14.37;;
8538;SDS011;4307;53.868;11.680;2023-03-01T10:49:54;21.43;;;13.27;;
8538;SDS011;4307;53.868;11.680;2023-03-01T10:52:23;22.37;;;14.50;;
8538;SDS011;4307;53.868;11.680;2023-03-01T10:54:55;18.80;;;13.27;;
8538;SDS011;4307;53.868;11.680;2023-03-01T10:57:27;21.10;;;14.47;;
8538;SDS011;4307;53.868;11.680;2023-03-01T11:00:13;20.47;;;13.80;;
8538;SDS011;4307;53.868;11.680;2023-03-01T11:02:50;24.60;;;14.30;;
8538;SDS011;4307;53.868;11.680;2023-03-01T11:05:28;22.40;;;14.17;;
8538;SDS011;4307;53.868;11.680;2023-03-01T11:07:58;21.63;;;13.60;;
8538;SDS011;4307;53.868;11.680;2023-03-01T11:10:29;20.77;;;13.37;;
8538;SDS011;4307;53.868;11.680;2023-03-01T11:13:08;22.07;;;13.53;;
8538;SDS011;4307;53.868;11.680;2023-03-01T11:15:40;22.37;;;13.27;;
8538;SDS011;4307;53.868;11.680;2023-03-01T11:18:17;23.77;;;14.03;;
8538;SDS011;4307;53.868;11.680;2023-03-01T11:20:46;21.50;;;13.43;;
8538;SDS011;4307;53.868;11.680;2023-03-01T11:23:14;26.07;;;14.23;;
8538;SDS011;4307;53.868;11.680;2023-03-01T11:25:43;22.07;;;14.13;;
8538;SDS011;4307;53.868;11.680;2023-03-01T11:28:15;21.40;;;14.20;;
8538;SDS011;4307;53.868;11.680;2023-03-01T11:30:45;21.03;;;14.40;;
8538;SDS011;4307;53.868;11.680;2023-03-01T11:33:17;22.97;;;14.23;;
8538;SDS011;4307;53.868;11.680;2023-03-01T11:35:47;24.17;;;14.43;;
8538;SDS011;4307;53.868;11.680;2023-03-01T11:38:22;22.00;;;13.70;;
8538;SDS011;4307;53.868;11.680;2023-03-01T11:40:53;24.90;;;14.10;;
8538;SDS011;4307;53.868;11.680;2023-03-01T11:43:26;23.60;;;14.30;;
8538;SDS011;4307;53.868;11.680;2023-03-01T11:46:04;23.50;;;15.23;;
8538;SDS011;4307;53.868;11.680;2023-03-01T11:49:00;24.77;;;14.60;;
8538;SDS011;4307;53.868;11.680;2023-03-01T11:51:40;22.07;;;13.50;;
8538;SDS011;4307;53.868;11.680;2023-03-01T11:54:20;20.73;;;13.70;;
8538;SDS011;4307;53.868;11.680;2023-03-01T11:57:00;24.17;;;14.90;;
8538;SDS011;4307;53.868;11.680;2023-03-01T12:02:37;22.70;;;13.83;;
8538;SDS011;4307;53.868;11.680;2023-03-01T12:05:24;24.97;;;14.97;;
8538;SDS011;4307;53.868;11.680;2023-03-01T12:08:12;24.67;;;14.87;;
8538;SDS011;4307;53.868;11.680;2023-03-01T12:10:47;23.63;;;14.97;;
8538;SDS011;4307;53.868;11.680;2023-03-01T12:13:32;25.23;;;14.57;;
8538;SDS011;4307;53.868;11.680;2023-03-01T12:16:20;24.30;;;15.53;;
8538;SDS011;4307;53.868;11.680;2023-03-01T12:18:56;23.80;;;15.33;;
8538;SDS011;4307;53.868;11.680;2023-03-01T12:21:42;26.17;;;14.43;;
8538;SDS011;4307;53.868;11.680;2023-03-01T12:24:22;25.33;;;14.90;;
8538;SDS011;4307;53.868;11.680;2023-03-01T12:27:08;25.40;;;15.87;;
8538;SDS011;4307;53.868;11.680;2023-03-01T12:29:49;24.37;;;14.40;;
8538;SDS011;4307;53.868;11.680;2023-03-01T12:32:22;24.97;;;14.97;;
8538;SDS011;4307;53.868;11.680;2023-03-01T12:35:03;27.00;;;14.60;;
8538;SDS011;4307;53.868;11.680;2023-03-01T12:37:45;25.17;;;14.37;;
8538;SDS011;4307;53.868;11.680;2023-03-01T12:43:16;24.20;;;14.53;;
8538;SDS011;4307;53.868;11.680;2023-03-01T12:46:01;25.17;;;14.60;;
8538;SDS011;4307;53.868;11.680;2023-03-01T12:48:47;24.77;;;13.80;;
8538;SDS011;4307;53.868;11.680;2023-03-01T12:51:22;24.30;;;13.63;;
8538;SDS011;4307;53.868;11.680;2023-03-01T12:53:53;24.30;;;13.87;;
8538;SDS011;4307;53.868;11.680;2023-03-01T12:56:22;24.23;;;12.87;;
8538;SDS011;4307;53.868;11.680;2023-03-01T12:58:53;20.80;;;12.73;;
8538;SDS011;4307;53.868;11.680;2023-03-01T13:01:32;24.20;;;13.37;;
8538;SDS011;4307;53.868;11.680;2023-03-01T13:04:16;20.43;;;12.83;;
8538;SDS011;4307;53.868;11.680;2023-03-01T13:06:55;22.93;;;12.67;;
8538;SDS011;4307;53.868;11.680;2023-03-01T13:09:33;22.17;;;12.77;;
8538;SDS011;4307;53.868;11.680;2023-03-01T13:15:24;24.23;;;13.60;;
8538;SDS011;4307;53.868;11.680;2023-03-01T13:17:54;22.67;;;12.83;;
8538;SDS011;4307;53.868;11.680;2023-03-01T13:20:23;26.97;;;14.43;;
8538;SDS011;4307;53.868;11.680;2023-03-01T13:23:00;24.93;;;13.53;;
8538;SDS011;4307;53.868;11.680;2023-03-01T13:25:29;27.60;;;14.57;;
8538;SDS011;4307;53.868;11.680;2023-03-01T13:30:56;29.60;;;15.57;;
8538;SDS011;4307;53.868;11.680;2023-03-01T13:33:43;26.50;;;14.47;;
8538;SDS011;4307;53.868;11.680;2023-03-01T13:36:13;27.03;;;14.13;;
8538;SDS011;4307;53.868;11.680;2023-03-01T13:39:26;26.43;;;14.67;;
8538;SDS011;4307;53.868;11.680;2023-03-01T13:41:57;24.77;;;13.40;;
8538;SDS011;4307;53.868;11.680;2023-03-01T13:44:25;25.77;;;13.50;;
8538;SDS011;4307;53.868;11.680;2023-03-01T13:46:57;23.40;;;13.93;;
8538;SDS011;4307;53.868;11.680;2023-03-01T13:49:27;23.87;;;12.90;;
8538;SDS011;4307;53.868;11.680;2023-03-01T13:51:57;22.93;;;12.37;;
8538;SDS011;4307;53.868;11.680;2023-03-01T13:54:25;19.13;;;11.20;;
8538;SDS011;4307;53.868;11.680;2023-03-01T13:56:55;18.63;;;10.17;;
8538;SDS011;4307;53.868;11.680;2023-03-01T13:59:23;16.83;;;10.03;;
8538;SDS011;4307;53.868;11.680;2023-03-01T14:01:54;17.17;;;10.03;;
8538;SDS011;4307;53.868;11.680;2023-03-01T14:04:42;19.97;;;10.07;;
8538;SDS011;4307;53.868;11.680;2023-03-01T14:07:10;20.13;;;11.40;;
8538;SDS011;4307;53.868;11.680;2023-03-01T14:09:39;23.33;;;11.57;;
8538;SDS011;4307;53.868;11.680;2023-03-01T14:12:14;17.70;;;10.70;;
8538;SDS011;4307;53.868;11.680;2023-03-01T14:14:52;18.30;;;9.83;;
8538;SDS011;4307;53.868;11.680;2023-03-01T14:17:29;19.17;;;10.63;;
8538;SDS011;4307;53.868;11.680;2023-03-01T14:20:11;24.43;;;10.77;;
8538;SDS011;4307;53.868;11.680;2023-03-01T14:22:42;21.90;;;10.50;;
8538;SDS011;4307;53.868;11.680;2023-03-01T14:25:17;19.40;;;10.03;;
8538;SDS011;4307;53.868;11.680;2023-03-01T14:27:51;20.63;;;10.43;;
8538;SDS011;4307;53.868;11.680;2023-03-01T14:30:25;21.27;;;11.00;;
8538;SDS011;4307;53.868;11.680;2023-03-01T14:32:54;20.77;;;10.17;;
8538;SDS011;4307;53.868;11.680;2023-03-01T14:35:24;24.03;;;12.17;;
8538;SDS011;4307;53.868;11.680;2023-03-01T14:37:52;22.93;;;10.83;;
8538;SDS011;4307;53.868;11.680;2023-03-01T14:40:26;22.00;;;11.67;;
8538;SDS011;4307;53.868;11.680;2023-03-01T14:42:55;20.80;;;11.13;;
8538;SDS011;4307;53.868;11.680;2023-03-01T14:45:25;23.37;;;11.73;;
8538;SDS011;4307;53.868;11.680;2023-03-01T14:47:53;24.27;;;11.73;;
8538;SDS011;4307;53.868;11.680;2023-03-01T14:50:24;20.57;;;11.47;;
8538;SDS011;4307;53.868;11.680;2023-03-01T14:52:53;25.03;;;11.47;;
8538;SDS011;4307;53.868;11.680;2023-03-01T14:55:22;21.50;;;11.43;;
8538;SDS011;4307;53.868;11.680;2023-03-01T14:57:56;20.90;;;11.67;;
8538;SDS011;4307;53.868;11.680;2023-03-01T15:00:24;21.60;;;10.87;;
8538;SDS011;4307;53.868;11.680;2023-03-01T15:02:54;20.30;;;10.57;;
8538;SDS011;4307;53.868;11.680;2023-03-01T15:05:25;26.30;;;10.90;;
8538;SDS011;4307;53.868;11.680;2023-03-01T15:07:55;20.70;;;10.63;;
8538;SDS011;4307;53.868;11.680;2023-03-01T15:10:25;25.20;;;10.57;;
8538;SDS011;4307;53.868;11.680;2023-03-01T15:12:54;20.33;;;10.20;;
8538;SDS011;4307;53.868;11.680;2023-03-01T15:15:26;20.90;;;9.83;;
8538;SDS011;4307;53.868;11.680;2023-03-01T15:18:01;17.77;;;10.30;;
8538;SDS011;4307;53.868;11.680;2023-03-01T15:20:32;20.20;;;10.20;;
8538;SDS011;4307;53.868;11.680;2023-03-01T15:23:01;20.70;;;10.20;;